createdAt,value
2022-12-27T00:00:54.402Z,3.22
2022-12-27T00:03:41.082Z,3.26
2022-12-27T00:06:27.055Z,3.29
2022-12-27T00:09:12.010Z,3.12
2022-12-27T00:11:59.924Z,3.26
2022-12-27T00:14:44.948Z,3.29
2022-12-27T00:17:30.092Z,3.20
2022-12-27T00:20:18.231Z,3.16
2022-12-27T00:23:03.475Z,3.21
2022-12-27T00:25:48.277Z,3.25
2022-12-27T00:28:34.935Z,3.27
2022-12-27T00:31:21.176Z,3.28
2022-12-27T00:34:07.705Z,3.32
2022-12-27T00:36:52.752Z,3.43
2022-12-27T00:39:37.913Z,3.40
2022-12-27T00:42:22.973Z,3.43
2022-12-27T00:45:08.440Z,3.44
2022-12-27T00:47:53.571Z,3.42
2022-12-27T00:50:43.463Z,3.48
2022-12-27T00:53:31.182Z,3.49
2022-12-27T00:56:27.843Z,3.53
2022-12-27T00:59:13.115Z,3.48
2022-12-27T01:01:58.513Z,3.43
2022-12-27T01:04:43.572Z,3.61
2022-12-27T01:07:28.846Z,3.50
2022-12-27T01:10:14.215Z,3.47
2022-12-27T01:13:03.347Z,3.50
2022-12-27T01:15:48.533Z,3.54
2022-12-27T01:18:33.613Z,3.46
2022-12-27T01:21:22.235Z,3.57
2022-12-27T01:24:07.554Z,3.56
2022-12-27T01:26:52.454Z,3.66
2022-12-27T01:29:37.534Z,3.71
2022-12-27T01:32:22.530Z,3.72
2022-12-27T01:35:08.209Z,3.77
2022-12-27T01:37:53.373Z,3.82
2022-12-27T01:40:39.226Z,3.82
2022-12-27T01:43:37.943Z,3.78
2022-12-27T01:46:23.094Z,3.76
2022-12-27T01:49:11.407Z,3.77
2022-12-27T01:51:56.699Z,3.86
2022-12-27T01:54:42.360Z,3.91
2022-12-27T01:57:27.700Z,3.97
2022-12-27T02:00:12.979Z,3.96
2022-12-27T02:02:59.321Z,4.02
2022-12-27T02:05:44.215Z,3.99
2022-12-27T02:08:35.375Z,4.00
2022-12-27T02:11:44.137Z,4.00
2022-12-27T02:14:32.781Z,4.01
2022-12-27T02:17:29.017Z,4.07
2022-12-27T02:20:21.475Z,4.06
2022-12-27T02:23:27.951Z,4.12
2022-12-27T02:26:42.471Z,4.16
2022-12-27T02:29:48.949Z,4.14
2022-12-27T02:32:42.797Z,4.13
2022-12-27T02:35:33.918Z,4.04
2022-12-27T02:38:25.976Z,4.12
2022-12-27T02:41:30.472Z,4.22
2022-12-27T02:44:36.163Z,4.21
2022-12-27T02:47:43.005Z,4.18
2022-12-27T02:50:58.742Z,4.20
2022-12-27T02:53:59.585Z,4.32
2022-12-27T02:57:09.295Z,4.29
2022-12-27T03:00:21.149Z,4.24
2022-12-27T03:03:42.650Z,4.34
2022-12-27T03:06:41.080Z,4.27
2022-12-27T03:09:57.540Z,4.20
2022-12-27T03:13:26.141Z,4.19
2022-12-27T03:16:32.762Z,4.15
2022-12-27T03:19:42.808Z,4.15
2022-12-27T03:22:49.503Z,4.08
2022-12-27T03:25:36.536Z,4.04
2022-12-27T03:28:46.155Z,3.93
2022-12-27T03:31:57.977Z,3.96
2022-12-27T03:34:59.843Z,3.97
2022-12-27T03:38:03.517Z,3.98
2022-12-27T03:41:12.006Z,3.91
2022-12-27T03:43:57.133Z,3.96
2022-12-27T03:46:43.372Z,3.92
2022-12-27T03:49:31.403Z,3.95
2022-12-27T03:52:31.918Z,4.01
2022-12-27T03:55:17.408Z,3.97
2022-12-27T03:58:02.522Z,3.97
2022-12-27T04:00:47.536Z,3.92
2022-12-27T04:03:32.809Z,4.07
2022-12-27T04:06:18.163Z,4.07
2022-12-27T04:09:22.172Z,4.07
2022-12-27T04:12:26.311Z,4.07
2022-12-27T04:15:30.023Z,4.05
2022-12-27T04:18:33.752Z,4.02
2022-12-27T04:21:37.473Z,3.94
2022-12-27T04:24:41.044Z,3.89
2022-12-27T04:27:44.705Z,3.88
2022-12-27T04:30:48.412Z,3.95
2022-12-27T04:33:52.287Z,3.96
2022-12-27T04:36:37.418Z,3.95
2022-12-27T04:39:22.306Z,3.94
2022-12-27T04:42:26.079Z,3.99
2022-12-27T04:45:29.737Z,4.03
2022-12-27T04:48:34.363Z,4.17
2022-12-27T04:51:38.125Z,4.12
2022-12-27T04:54:41.902Z,4.25
2022-12-27T04:57:27.812Z,4.29
2022-12-27T05:00:32.157Z,4.36
2022-12-27T05:03:20.911Z,4.39
2022-12-27T05:06:06.299Z,4.33
2022-12-27T05:09:09.602Z,4.44
2022-12-27T05:12:13.249Z,4.57
2022-12-27T05:14:58.230Z,4.61
2022-12-27T05:17:43.443Z,4.53
2022-12-27T05:20:28.623Z,4.50
2022-12-27T05:23:32.036Z,4.44
2022-12-27T05:26:24.746Z,4.43
2022-12-27T05:29:10.047Z,4.49
2022-12-27T05:31:55.076Z,4.57
2022-12-27T05:34:40.761Z,4.49
2022-12-27T05:37:25.827Z,4.39
2022-12-27T05:40:11.260Z,4.35
2022-12-27T05:42:59.260Z,4.33
2022-12-27T05:45:44.152Z,4.21
2022-12-27T05:48:29.356Z,4.19
2022-12-27T05:51:19.376Z,4.18
2022-12-27T05:54:04.754Z,4.18
2022-12-27T05:56:49.714Z,4.16
2022-12-27T05:59:34.914Z,4.13
2022-12-27T06:02:20.071Z,4.14
2022-12-27T06:05:05.724Z,4.11
2022-12-27T06:07:50.734Z,4.17
2022-12-27T06:10:36.014Z,4.13
2022-12-27T06:13:21.027Z,4.04
2022-12-27T06:16:07.943Z,3.96
2022-12-27T06:18:53.818Z,3.99
2022-12-27T06:21:39.353Z,3.97
2022-12-27T06:24:24.222Z,4.01
2022-12-27T06:27:09.313Z,4.03
2022-12-27T06:29:54.145Z,3.96
2022-12-27T06:32:39.282Z,3.80
2022-12-27T06:35:24.360Z,3.75
2022-12-27T06:38:09.485Z,3.84
2022-12-27T06:41:00.855Z,3.86
2022-12-27T06:43:46.957Z,3.98
2022-12-27T06:46:32.157Z,3.99
2022-12-27T06:49:17.217Z,4.00
2022-12-27T06:52:02.527Z,4.02
2022-12-27T06:54:47.716Z,4.01
2022-12-27T06:57:32.551Z,3.89
2022-12-27T07:00:17.916Z,3.78
2022-12-27T07:03:03.836Z,3.65
2022-12-27T07:05:48.697Z,3.43
2022-12-27T07:08:35.563Z,3.43
2022-12-27T07:11:21.680Z,3.05
2022-12-27T07:14:09.081Z,2.89
2022-12-27T07:16:53.988Z,2.76
2022-12-27T07:19:39.135Z,2.81
2022-12-27T07:22:24.161Z,3.06
2022-12-27T07:25:09.019Z,3.13
2022-12-27T07:27:54.332Z,3.19
2022-12-27T07:30:41.644Z,3.21
2022-12-27T07:33:26.504Z,3.06
2022-12-27T07:36:15.154Z,2.95
2022-12-27T07:39:00.254Z,2.83
2022-12-27T07:41:45.358Z,2.65
2022-12-27T07:44:30.426Z,2.50
2022-12-27T07:47:15.425Z,2.82
2022-12-27T07:50:00.314Z,3.11
2022-12-27T07:52:45.401Z,3.25
2022-12-27T07:55:31.141Z,3.35
2022-12-27T07:58:16.810Z,3.44
2022-12-27T08:01:03.173Z,3.51
2022-12-27T08:03:48.383Z,3.63
2022-12-27T08:06:34.850Z,3.75
2022-12-27T08:09:27.768Z,3.81
2022-12-27T08:12:14.017Z,3.89
2022-12-27T08:14:59.387Z,4.08
2022-12-27T08:17:44.269Z,4.18
2022-12-27T08:20:29.520Z,4.16
2022-12-27T08:23:14.476Z,4.26
2022-12-27T08:25:59.724Z,4.41
2022-12-27T08:28:44.467Z,4.47
2022-12-27T08:31:29.546Z,4.46
2022-12-27T08:34:14.564Z,4.47
2022-12-27T08:36:59.465Z,4.55
2022-12-27T08:39:44.699Z,4.64
2022-12-27T08:42:29.734Z,4.66
2022-12-27T08:45:14.860Z,4.64
2022-12-27T08:48:00.724Z,4.75
2022-12-27T08:50:45.503Z,4.80
2022-12-27T08:53:31.015Z,4.81
2022-12-27T08:56:16.164Z,4.88
2022-12-27T08:59:01.388Z,4.89
2022-12-27T09:01:46.482Z,5.01
2022-12-27T09:04:31.400Z,5.11
2022-12-27T09:07:16.515Z,5.16
2022-12-27T09:10:01.538Z,5.21
2022-12-27T09:12:47.245Z,5.29
2022-12-27T09:15:32.140Z,5.30
2022-12-27T09:18:17.312Z,5.26
2022-12-27T09:21:08.026Z,5.41
2022-12-27T09:23:54.796Z,5.56
2022-12-27T09:26:39.890Z,5.64
2022-12-27T09:29:25.108Z,5.72
2022-12-27T09:32:09.955Z,5.71
2022-12-27T09:34:54.995Z,5.64
2022-12-27T09:37:40.075Z,5.69
2022-12-27T09:40:25.077Z,5.72
2022-12-27T09:43:23.848Z,6.05
2022-12-27T09:46:20.352Z,6.10
2022-12-27T09:49:09.577Z,6.20
2022-12-27T09:52:01.500Z,6.30
2022-12-27T09:55:13.630Z,6.43
2022-12-27T09:58:13.081Z,6.51
2022-12-27T10:00:58.253Z,6.63
2022-12-27T10:03:43.301Z,6.79
2022-12-27T10:06:41.916Z,6.99
2022-12-27T10:09:44.556Z,7.06
2022-12-27T10:13:03.615Z,7.25
2022-12-27T10:16:05.722Z,7.24
2022-12-27T10:19:15.651Z,7.03
2022-12-27T10:22:08.171Z,7.53
2022-12-27T10:24:59.004Z,8.00
2022-12-27T10:27:46.600Z,8.20
2022-12-27T10:30:31.441Z,7.88
2022-12-27T10:33:20.930Z,8.04
2022-12-27T10:36:11.950Z,8.16
2022-12-27T10:38:57.057Z,7.99
2022-12-27T10:42:18.076Z,8.56
2022-12-27T10:45:24.840Z,8.68
2022-12-27T10:48:14.666Z,8.01
2022-12-27T10:51:06.032Z,7.88
2022-12-27T10:53:51.068Z,8.00
2022-12-27T10:56:39.089Z,8.06
2022-12-27T10:59:27.119Z,8.84
2022-12-27T11:02:18.036Z,9.50
2022-12-27T11:05:03.306Z,8.97
2022-12-27T11:07:48.069Z,8.85
2022-12-27T11:10:33.319Z,8.84
2022-12-27T11:13:19.148Z,9.43
2022-12-27T11:16:04.896Z,8.90
2022-12-27T11:18:53.930Z,8.70
2022-12-27T11:21:40.583Z,8.95
2022-12-27T11:24:25.755Z,8.71
2022-12-27T11:27:22.102Z,8.71
2022-12-27T11:30:20.358Z,8.60
2022-12-27T11:33:22.694Z,8.32
2022-12-27T11:36:11.691Z,8.03
2022-12-27T11:38:57.497Z,7.96
2022-12-27T11:41:53.992Z,7.96
2022-12-27T11:44:45.949Z,7.91
2022-12-27T11:47:38.575Z,7.83
2022-12-27T11:50:54.948Z,7.87
2022-12-27T11:54:24.344Z,7.95
2022-12-27T11:58:02.683Z,8.11
2022-12-27T12:01:48.389Z,8.20
2022-12-27T12:04:57.444Z,8.08
2022-12-27T12:08:01.514Z,8.17
2022-12-27T12:11:00.525Z,8.03
2022-12-27T12:14:20.352Z,7.90
2022-12-27T12:17:36.290Z,8.00
2022-12-27T12:20:58.601Z,8.07
2022-12-27T12:24:25.106Z,8.04
2022-12-27T12:27:41.267Z,8.16
2022-12-27T12:30:47.175Z,8.08
2022-12-27T12:34:02.518Z,8.08
2022-12-27T12:37:04.889Z,8.18
2022-12-27T12:40:23.255Z,8.27
2022-12-27T12:43:37.524Z,8.35
2022-12-27T12:46:49.436Z,8.32
2022-12-27T12:49:58.484Z,8.39
2022-12-27T12:53:25.177Z,8.52
2022-12-27T12:56:43.814Z,8.61
2022-12-27T13:00:12.387Z,8.61
2022-12-27T13:03:27.442Z,8.67
2022-12-27T13:06:20.960Z,8.61
2022-12-27T13:09:28.260Z,8.56
2022-12-27T13:12:22.618Z,8.55
2022-12-27T13:15:47.673Z,8.54
2022-12-27T13:19:05.463Z,8.53
2022-12-27T13:22:15.400Z,8.51
2022-12-27T13:25:18.993Z,8.44
2022-12-27T13:28:37.430Z,8.40
2022-12-27T13:31:34.346Z,8.47
2022-12-27T13:34:54.137Z,8.54
2022-12-27T13:38:08.761Z,8.71
2022-12-27T13:41:22.544Z,8.81
2022-12-27T13:44:32.642Z,8.93
2022-12-27T13:47:39.564Z,9.14
2022-12-27T13:50:51.338Z,9.07
2022-12-27T13:53:50.193Z,9.03
2022-12-27T13:56:54.844Z,9.02
2022-12-27T13:59:46.220Z,8.99
2022-12-27T14:02:37.475Z,8.91
2022-12-27T14:05:41.600Z,8.97
2022-12-27T14:08:58.055Z,8.84
2022-12-27T14:12:14.866Z,8.76
2022-12-27T14:15:04.267Z,8.71
2022-12-27T14:18:02.542Z,8.58
2022-12-27T14:21:02.636Z,8.46
2022-12-27T14:24:27.584Z,8.33
2022-12-27T14:27:34.461Z,8.27
2022-12-27T14:30:25.501Z,8.23
2022-12-27T14:33:40.320Z,8.13
2022-12-27T14:36:57.593Z,7.99
2022-12-27T14:40:07.039Z,7.95
2022-12-27T14:42:54.994Z,7.91
2022-12-27T14:45:57.152Z,7.80
2022-12-27T14:49:24.888Z,7.72
2022-12-27T14:52:37.827Z,7.63
2022-12-27T14:55:47.884Z,7.55
2022-12-27T14:58:42.111Z,7.48
2022-12-27T15:02:01.920Z,7.42
2022-12-27T15:05:05.786Z,7.40
2022-12-27T15:08:02.816Z,7.33
2022-12-27T15:10:57.502Z,7.25
2022-12-27T15:13:50.051Z,7.17
2022-12-27T15:16:41.252Z,7.16
2022-12-27T15:19:37.976Z,7.14
2022-12-27T15:22:53.321Z,7.06
2022-12-27T15:25:47.213Z,7.04
2022-12-27T15:28:50.672Z,6.99
2022-12-27T15:31:52.575Z,6.97
2022-12-27T15:34:51.261Z,6.89
2022-12-27T15:38:01.748Z,6.84
2022-12-27T15:41:08.739Z,6.80
2022-12-27T15:44:15.893Z,6.76
2022-12-27T15:47:39.447Z,6.74
2022-12-27T15:50:38.483Z,6.69
2022-12-27T15:53:54.686Z,6.67
2022-12-27T15:56:45.357Z,6.59
2022-12-27T15:59:52.741Z,6.59
2022-12-27T16:02:49.287Z,6.57
2022-12-27T16:05:43.841Z,6.52
2022-12-27T16:08:37.738Z,6.52
2022-12-27T16:11:58.308Z,6.50
2022-12-27T16:14:43.705Z,6.46
2022-12-27T16:17:47.304Z,6.37
2022-12-27T16:20:33.019Z,6.44
2022-12-27T16:23:24.397Z,6.35
2022-12-27T16:26:32.714Z,6.36
2022-12-27T16:29:18.127Z,6.28
2022-12-27T16:32:19.298Z,6.24
2022-12-27T16:35:16.169Z,6.19
2022-12-27T16:38:03.667Z,6.21
2022-12-27T16:40:55.337Z,6.22
2022-12-27T16:43:52.763Z,6.15
2022-12-27T16:46:51.865Z,6.09
2022-12-27T16:50:14.191Z,6.06
2022-12-27T16:53:40.128Z,5.95
2022-12-27T16:56:28.167Z,5.87
2022-12-27T16:59:50.925Z,5.83
2022-12-27T17:02:45.950Z,5.88
2022-12-27T17:05:33.426Z,5.83
2022-12-27T17:08:20.801Z,5.72
2022-12-27T17:11:30.399Z,5.80
2022-12-27T17:14:27.905Z,5.73
2022-12-27T17:17:20.966Z,5.69
2022-12-27T17:20:15.845Z,5.70
2022-12-27T17:23:04.074Z,5.63
2022-12-27T17:25:57.075Z,5.66
2022-12-27T17:28:56.496Z,5.62
2022-12-27T17:31:52.961Z,5.60
2022-12-27T17:34:56.948Z,5.54
2022-12-27T17:38:06.993Z,5.50
2022-12-27T17:41:46.118Z,5.45
2022-12-27T17:44:44.787Z,5.39
2022-12-27T17:47:51.242Z,5.29
2022-12-27T17:50:37.858Z,5.20
2022-12-27T17:53:42.784Z,5.20
2022-12-27T17:56:46.547Z,5.25
2022-12-27T17:59:37.470Z,5.24
2022-12-27T18:02:29.276Z,5.18
2022-12-27T18:05:15.498Z,5.21
2022-12-27T18:08:05.896Z,5.18
2022-12-27T18:10:51.660Z,5.11
2022-12-27T18:13:39.695Z,5.06
2022-12-27T18:16:37.853Z,5.13
2022-12-27T18:19:29.725Z,5.27
2022-12-27T18:22:19.699Z,5.22
2022-12-27T18:25:24.437Z,5.21
2022-12-27T18:28:32.515Z,5.28
2022-12-27T18:31:46.818Z,5.27
2022-12-27T18:34:39.591Z,5.24
2022-12-27T18:37:25.819Z,5.26
2022-12-27T18:40:20.487Z,5.25
2022-12-27T18:43:15.450Z,5.30
2022-12-27T18:46:01.897Z,5.29
2022-12-27T18:48:48.869Z,5.31
2022-12-27T18:51:36.196Z,5.30
2022-12-27T18:54:34.862Z,5.28
2022-12-27T18:57:33.268Z,5.27
2022-12-27T19:00:26.426Z,5.30
2022-12-27T19:03:17.379Z,5.33
2022-12-27T19:06:11.600Z,5.28
2022-12-27T19:08:56.613Z,5.23
2022-12-27T19:11:41.981Z,5.26
2022-12-27T19:14:42.599Z,5.22
2022-12-27T19:17:30.543Z,5.18
2022-12-27T19:20:28.537Z,5.13
2022-12-27T19:23:33.997Z,5.17
2022-12-27T19:26:29.633Z,5.09
2022-12-27T19:29:17.037Z,5.19
2022-12-27T19:32:08.549Z,5.15
2022-12-27T19:34:57.430Z,5.09
2022-12-27T19:37:42.591Z,5.06
2022-12-27T19:40:27.564Z,5.03
2022-12-27T19:43:14.323Z,5.09
2022-12-27T19:45:59.182Z,5.17
2022-12-27T19:48:51.402Z,5.21
2022-12-27T19:51:50.226Z,5.13
2022-12-27T19:54:35.439Z,5.13
2022-12-27T19:57:22.096Z,5.14
2022-12-27T20:00:17.402Z,5.15
2022-12-27T20:03:03.136Z,5.05
2022-12-27T20:06:14.193Z,5.03
2022-12-27T20:08:53.807Z,5.01
2022-12-27T20:11:38.911Z,5.02
2022-12-27T20:14:23.996Z,5.07
2022-12-27T20:17:09.163Z,5.04
2022-12-27T20:19:53.935Z,4.96
2022-12-27T20:22:39.053Z,4.95
2022-12-27T20:25:24.624Z,4.87
2022-12-27T20:28:10.748Z,4.87
2022-12-27T20:30:55.725Z,4.82
2022-12-27T20:33:40.628Z,4.79
2022-12-27T20:36:25.801Z,4.78
2022-12-27T20:39:11.234Z,4.81
2022-12-27T20:41:56.289Z,4.73
2022-12-27T20:44:41.431Z,4.68
2022-12-27T20:47:26.457Z,4.71
2022-12-27T20:50:11.556Z,4.76
2022-12-27T20:52:56.319Z,4.76
2022-12-27T20:55:41.526Z,4.66
2022-12-27T20:58:26.594Z,4.50
2022-12-27T21:01:14.689Z,4.58
2022-12-27T21:04:00.127Z,4.57
2022-12-27T21:06:45.211Z,4.69
2022-12-27T21:09:30.931Z,4.58
2022-12-27T21:12:15.741Z,4.53
2022-12-27T21:15:00.979Z,4.76
2022-12-27T21:17:45.858Z,4.71
2022-12-27T21:20:30.882Z,4.63
2022-12-27T21:23:16.004Z,4.65
2022-12-27T21:26:21.143Z,4.66
2022-12-27T21:29:09.132Z,4.74
2022-12-27T21:31:54.545Z,4.74
2022-12-27T21:34:41.075Z,4.81
2022-12-27T21:37:26.067Z,4.86
2022-12-27T21:40:11.741Z,5.04
2022-12-27T21:42:56.598Z,4.92
2022-12-27T21:45:41.876Z,5.02
2022-12-27T21:48:26.960Z,5.10
2022-12-27T21:51:17.642Z,5.15
2022-12-27T21:54:03.424Z,5.21
2022-12-27T21:56:48.284Z,5.26
2022-12-27T21:59:33.402Z,5.20
2022-12-27T22:02:18.568Z,5.12
2022-12-27T22:05:04.046Z,5.17
2022-12-27T22:07:49.080Z,5.11
2022-12-27T22:10:40.748Z,5.13
2022-12-27T22:13:25.526Z,5.27
2022-12-27T22:16:16.211Z,5.18
2022-12-27T22:19:01.660Z,5.12
2022-12-27T22:21:46.713Z,5.08
2022-12-27T22:24:31.986Z,5.12
2022-12-27T22:27:16.953Z,5.10
2022-12-27T22:30:01.964Z,5.09
2022-12-27T22:32:47.117Z,5.08
2022-12-27T22:35:33.151Z,5.08
2022-12-27T22:38:18.446Z,5.07
2022-12-27T22:41:10.353Z,5.10
2022-12-27T22:44:00.533Z,5.11
2022-12-27T22:47:15.844Z,5.18
2022-12-27T22:49:50.267Z,5.19
2022-12-27T22:52:35.438Z,5.26
2022-12-27T22:55:20.207Z,5.24
2022-12-27T22:58:05.393Z,5.17
2022-12-27T23:00:50.141Z,5.23
2022-12-27T23:03:35.155Z,5.20
2022-12-27T23:06:20.837Z,5.19
2022-12-27T23:09:06.483Z,5.25
2022-12-27T23:11:51.456Z,5.26
2022-12-27T23:14:36.534Z,5.27
2022-12-27T23:17:21.369Z,5.24
2022-12-27T23:20:07.241Z,5.24
2022-12-27T23:22:52.442Z,5.25
2022-12-27T23:25:37.752Z,5.23
2022-12-27T23:28:22.837Z,5.31
2022-12-27T23:31:10.564Z,5.34
2022-12-27T23:33:55.547Z,5.40
2022-12-27T23:36:40.808Z,5.49
2022-12-27T23:39:26.288Z,5.66
2022-12-27T23:42:11.342Z,5.66
2022-12-27T23:44:56.394Z,5.68
2022-12-27T23:47:41.487Z,5.71
2022-12-27T23:50:26.302Z,5.68
2022-12-27T23:53:11.257Z,5.80
2022-12-27T23:56:07.191Z,5.86
2022-12-27T23:58:54.244Z,5.81
